createdAt,value
2023-02-26T00:01:31.959Z,100822.84
2023-02-26T00:04:02.528Z,100823.98
2023-02-26T00:06:32.825Z,100831.18
2023-02-26T00:09:01.113Z,100829.51
2023-02-26T00:11:29.461Z,100826.34
2023-02-26T00:13:57.555Z,100825.16
2023-02-26T00:16:35.956Z,100828.79
2023-02-26T00:19:06.806Z,100835.56
2023-02-26T00:21:36.304Z,100833.14
2023-02-26T00:24:04.459Z,100848.73
2023-02-26T00:26:32.818Z,100850.96
2023-02-26T00:29:01.256Z,100851.62
2023-02-26T00:31:29.279Z,100847.92
2023-02-26T00:33:58.698Z,100847.92
2023-02-26T00:36:53.259Z,100854.43
2023-02-26T00:39:45.555Z,100851.62
2023-02-26T00:42:14.327Z,100851.62
2023-02-26T00:44:42.476Z,100847.98
2023-02-26T00:47:25.416Z,100849.95
2023-02-26T00:50:01.820Z,100852.83
2023-02-26T00:52:32.838Z,100848.84
2023-02-26T00:55:00.642Z,100859.30
2023-02-26T00:57:28.322Z,100856.12
2023-02-26T00:59:56.040Z,100858.58
2023-02-26T01:02:24.077Z,100860.61
2023-02-26T01:04:52.114Z,100861.82
2023-02-26T01:07:24.973Z,100854.16
2023-02-26T01:09:53.046Z,100853.77
2023-02-26T01:12:21.481Z,100861.03
2023-02-26T01:14:49.520Z,100851.81
2023-02-26T01:17:33.105Z,100852.17
2023-02-26T01:20:23.583Z,100860.64
2023-02-26T01:23:01.542Z,100856.59
2023-02-26T01:25:37.838Z,100850.63
2023-02-26T01:28:05.712Z,100854.82
2023-02-26T01:30:33.762Z,100855.28
2023-02-26T01:33:20.615Z,100842.75
2023-02-26T01:35:56.660Z,100841.94
2023-02-26T01:38:56.350Z,100846.77
2023-02-26T01:41:52.018Z,100842.72
2023-02-26T01:44:57.233Z,100846.80
2023-02-26T01:47:37.266Z,100856.09
2023-02-26T01:50:31.067Z,100845.63
2023-02-26T01:53:25.097Z,100850.86
2023-02-26T01:55:58.717Z,100849.69
2023-02-26T01:58:29.573Z,100844.42
2023-02-26T02:00:57.340Z,100848.05
2023-02-26T02:03:27.582Z,100850.30
2023-02-26T02:06:04.724Z,100839.02
2023-02-26T02:08:36.803Z,100842.62
2023-02-26T02:11:08.061Z,100849.00
2023-02-26T02:13:48.052Z,100844.62
2023-02-26T02:16:32.966Z,100840.27
2023-02-26T02:19:09.035Z,100845.50
2023-02-26T02:21:51.497Z,100842.72
2023-02-26T02:24:43.284Z,100844.36
2023-02-26T02:27:38.624Z,100840.40
2023-02-26T02:30:44.294Z,100854.91
2023-02-26T02:33:19.015Z,100846.97
2023-02-26T02:35:57.163Z,100848.67
2023-02-26T02:38:29.395Z,100851.16
2023-02-26T02:41:06.457Z,100856.88
2023-02-26T02:43:37.864Z,100853.64
2023-02-26T02:46:10.021Z,100856.91
2023-02-26T02:49:09.967Z,100856.91
2023-02-26T02:51:42.806Z,100857.73
2023-02-26T02:54:24.018Z,100863.84
2023-02-26T02:57:04.577Z,100856.59
2023-02-26T03:26:32.349Z,100869.70
2023-02-26T03:29:28.900Z,100860.51
2023-02-26T03:32:01.854Z,100874.27
2023-02-26T03:34:46.994Z,100869.53
2023-02-26T03:37:27.863Z,100872.84
2023-02-26T03:40:03.345Z,100873.30
2023-02-26T03:42:34.218Z,100875.35
2023-02-26T03:45:16.190Z,100874.18
2023-02-26T03:47:47.242Z,100883.50
2023-02-26T03:50:25.816Z,100885.95
2023-02-26T03:52:55.214Z,100884.38
2023-02-26T03:55:40.272Z,100884.41
2023-02-26T03:58:08.274Z,100880.03
2023-02-26T04:00:40.847Z,100886.51
2023-02-26T04:03:19.844Z,100884.48
2023-02-26T04:05:50.705Z,100888.56
2023-02-26T04:08:18.594Z,100899.03
2023-02-26T04:11:01.590Z,100894.23
2023-02-26T04:13:29.486Z,100890.59
2023-02-26T04:15:57.143Z,100897.82
2023-02-26T04:18:24.966Z,100895.01
2023-02-26T04:20:52.638Z,100900.63
2023-02-26T04:23:20.602Z,100906.29
2023-02-26T04:25:48.438Z,100907.96
2023-02-26T04:28:16.436Z,100916.79
2023-02-26T04:30:44.136Z,100911.20
2023-02-26T04:33:11.853Z,100923.26
2023-02-26T04:35:40.086Z,100912.05
2023-02-26T04:38:07.741Z,100913.65
2023-02-26T04:40:35.372Z,100924.90
2023-02-26T04:43:03.017Z,100934.18
2023-02-26T04:45:30.732Z,100943.08
2023-02-26T04:47:58.357Z,100949.59
2023-02-26T04:50:26.078Z,100931.99
2023-02-26T04:52:53.886Z,100942.09
2023-02-26T04:55:21.709Z,100943.73
2023-02-26T04:57:49.363Z,100938.17
2023-02-26T05:00:18.631Z,100935.82
2023-02-26T05:02:46.285Z,100944.65
2023-02-26T05:05:14.160Z,100944.65
2023-02-26T05:07:41.815Z,100943.05
2023-02-26T05:10:10.288Z,100936.63
2023-02-26T05:12:37.954Z,100944.26
2023-02-26T05:15:07.323Z,100947.10
2023-02-26T05:17:34.948Z,100951.91
2023-02-26T05:20:02.559Z,100959.49
2023-02-26T05:22:30.407Z,100959.10
2023-02-26T05:24:58.087Z,100957.53
2023-02-26T05:27:25.800Z,100969.56
2023-02-26T05:29:53.519Z,100967.96
2023-02-26T05:32:21.202Z,100965.97
2023-02-26T05:34:48.858Z,100970.38
2023-02-26T05:37:16.567Z,100967.57
2023-02-26T05:39:44.261Z,100963.94
2023-02-26T05:42:11.955Z,100963.94
2023-02-26T05:44:39.625Z,100969.17
2023-02-26T05:47:07.332Z,100968.35
2023-02-26T05:49:35.156Z,100961.52
2023-02-26T05:52:03.007Z,100970.77
2023-02-26T05:54:30.937Z,100973.98
2023-02-26T05:56:58.857Z,100971.16
2023-02-26T05:59:26.828Z,100975.98
2023-02-26T06:01:54.648Z,100980.36
2023-02-26T06:04:22.364Z,100987.59
2023-02-26T06:06:50.014Z,100989.19
2023-02-26T06:09:17.929Z,100992.39
2023-02-26T06:11:45.701Z,100978.36
2023-02-26T06:14:13.496Z,100969.14
2023-02-26T06:16:41.279Z,100979.54
2023-02-26T06:19:09.029Z,100983.16
2023-02-26T06:21:36.710Z,100987.16
2023-02-26T06:24:04.552Z,100992.00
2023-02-26T06:26:32.269Z,100997.20
2023-02-26T06:28:59.974Z,100998.83
2023-02-26T06:31:28.210Z,100994.81
2023-02-26T06:33:55.957Z,101007.23
2023-02-26T06:36:23.964Z,101008.84
2023-02-26T06:38:51.874Z,101012.04
2023-02-26T06:41:19.809Z,101025.71
2023-02-26T06:43:47.452Z,101028.13
2023-02-26T06:46:15.390Z,101010.44
2023-02-26T06:48:43.110Z,101021.69
2023-02-26T06:51:11.050Z,101018.88
2023-02-26T06:53:39.604Z,101022.51
2023-02-26T06:56:07.524Z,101017.70
2023-02-26T06:58:35.750Z,101023.32
2023-02-26T07:01:05.954Z,101028.13
2023-02-26T07:03:33.704Z,101028.91
2023-02-26T07:06:23.587Z,101028.91
2023-02-26T07:08:49.093Z,101038.14
2023-02-26T07:11:16.931Z,101042.98
2023-02-26T07:13:44.663Z,101044.97
2023-02-26T07:16:12.762Z,101054.20
2023-02-26T07:18:40.720Z,101052.16
2023-02-26T07:21:08.782Z,101056.19
2023-02-26T07:23:36.608Z,101070.64
2023-02-26T07:26:04.420Z,101069.86
2023-02-26T07:28:32.165Z,101070.64
2023-02-26T07:31:00.223Z,101072.24
2023-02-26T07:33:29.612Z,101069.86
2023-02-26T07:35:57.634Z,101083.46
2023-02-26T07:38:25.364Z,101087.91
2023-02-26T07:40:56.401Z,101092.32
2023-02-26T07:43:25.327Z,101099.13
2023-02-26T07:45:54.663Z,101103.54
2023-02-26T07:48:22.634Z,101115.18
2023-02-26T07:50:53.438Z,101108.34
2023-02-26T07:53:21.757Z,101107.95
2023-02-26T07:55:49.870Z,101111.98
2023-02-26T07:58:18.798Z,101122.41
2023-02-26T08:00:47.313Z,101124.83
2023-02-26T08:03:16.506Z,101123.22
2023-02-26T08:05:44.211Z,101120.38
2023-02-26T08:08:11.970Z,101125.61
2023-02-26T08:10:42.022Z,101117.99
2023-02-26T08:13:09.982Z,101122.41
2023-02-26T08:15:37.784Z,101117.96
2023-02-26T08:18:05.701Z,101110.34
2023-02-26T08:20:33.397Z,101113.15
2023-02-26T08:23:01.034Z,101120.38
2023-02-26T08:25:28.798Z,101111.52
2023-02-26T08:27:58.960Z,101112.73
2023-02-26T08:30:26.591Z,101117.96
2023-02-26T08:32:54.325Z,101117.14
2023-02-26T08:35:22.058Z,101111.52
2023-02-26T08:37:49.782Z,101110.57
2023-02-26T08:40:17.754Z,101114.20
2023-02-26T08:42:45.598Z,101123.42
2023-02-26T08:45:13.568Z,101115.73
2023-02-26T08:47:56.122Z,101124.63
2023-02-26T08:50:25.953Z,101120.21
2023-02-26T08:52:54.180Z,101119.01
2023-02-26T08:55:22.956Z,101132.31
2023-02-26T08:57:50.710Z,101117.04
2023-02-26T09:00:19.660Z,101120.28
2023-02-26T09:02:47.785Z,101127.54
2023-02-26T09:05:16.385Z,101127.15
2023-02-26T09:07:44.916Z,101127.54
2023-02-26T09:10:13.740Z,101130.77
2023-02-26T09:12:41.969Z,101146.80
2023-02-26T09:15:11.483Z,101143.62
2023-02-26T09:17:39.535Z,101144.38
2023-02-26T09:20:08.316Z,101133.91
2023-02-26T09:22:36.703Z,101135.95
2023-02-26T09:25:05.427Z,101144.38
2023-02-26T09:27:33.534Z,101135.55
2023-02-26T09:30:01.328Z,101144.38
2023-02-26T09:32:29.123Z,101149.61
2023-02-26T09:34:56.961Z,101144.77
2023-02-26T09:37:24.647Z,101138.79
2023-02-26T09:39:54.812Z,101156.84
2023-02-26T09:42:45.972Z,101165.27
2023-02-26T09:45:31.454Z,101166.88
2023-02-26T09:48:02.451Z,101164.46
2023-02-26T09:50:43.672Z,101169.27
2023-02-26T09:53:32.669Z,101159.62
2023-02-26T09:56:05.830Z,101169.66
2023-02-26T09:58:40.051Z,101172.47
2023-02-26T10:01:35.598Z,101158.02
2023-02-26T10:04:22.655Z,101161.58
2023-02-26T10:07:11.952Z,101149.09
2023-02-26T10:10:10.106Z,101152.23
2023-02-26T10:12:41.691Z,101146.96
2023-02-26T10:15:23.896Z,101159.81
2023-02-26T10:18:13.202Z,101140.85
2023-02-26T10:20:53.050Z,101147.26
2023-02-26T10:23:35.034Z,101145.59
2023-02-26T10:26:20.535Z,101136.37
2023-02-26T10:29:13.123Z,101135.16
2023-02-26T10:32:19.064Z,101152.85
2023-02-26T10:34:58.196Z,101154.52
2023-02-26T10:37:44.595Z,101159.39
2023-02-26T10:40:36.504Z,101156.97
2023-02-26T10:43:13.295Z,101153.73
2023-02-26T10:45:47.128Z,101158.54
2023-02-26T10:48:43.761Z,101155.30
2023-02-26T10:51:21.634Z,101163.73
2023-02-26T10:53:56.524Z,101162.10
2023-02-26T10:56:42.441Z,101167.70
2023-02-26T10:59:10.468Z,101162.07
2023-02-26T11:01:38.453Z,101169.30
2023-02-26T11:04:19.517Z,101171.26
2023-02-26T11:06:56.617Z,101166.38
2023-02-26T11:09:32.772Z,101164.78
2023-02-26T11:12:15.514Z,101170.38
2023-02-26T11:14:48.661Z,101178.39
2023-02-26T11:17:23.558Z,101176.75
2023-02-26T11:19:59.171Z,101174.66
2023-02-26T11:22:30.557Z,101171.06
2023-02-26T11:24:58.977Z,101169.40
2023-02-26T11:27:32.304Z,101181.04
2023-02-26T11:30:07.648Z,101157.72
2023-02-26T11:32:38.438Z,101163.38
2023-02-26T11:35:09.795Z,101164.98
2023-02-26T11:37:41.766Z,101156.91
2023-02-26T11:40:19.637Z,101158.51
2023-02-26T11:43:00.329Z,101161.38
2023-02-26T11:45:28.312Z,101165.44
2023-02-26T11:48:06.359Z,101157.39
2023-02-26T11:50:44.705Z,101159.78
2023-02-26T11:53:24.887Z,101161.77
2023-02-26T11:56:02.458Z,101152.09
2023-02-26T11:58:37.036Z,101150.79
2023-02-26T12:01:07.669Z,101156.74
2023-02-26T12:03:42.021Z,101141.41
2023-02-26T12:06:19.521Z,101146.63
2023-02-26T12:08:47.326Z,101143.79
2023-02-26T12:11:27.507Z,101150.59
2023-02-26T12:14:13.423Z,101155.83
2023-02-26T12:17:21.184Z,101156.67
2023-02-26T12:19:52.216Z,101164.06
2023-02-26T12:22:31.699Z,101153.99
2023-02-26T12:25:11.261Z,101162.85
2023-02-26T12:27:56.866Z,101152.49
2023-02-26T12:30:55.615Z,101158.15
2023-02-26T12:33:39.082Z,101160.20
2023-02-26T12:36:22.887Z,101162.63
2023-02-26T12:39:00.050Z,101157.03
2023-02-26T12:41:36.875Z,101170.41
2023-02-26T12:44:22.113Z,101156.31
2023-02-26T12:47:12.898Z,101164.82
2023-02-26T12:50:08.351Z,101161.65
2023-02-26T12:53:15.590Z,101150.30
2023-02-26T12:56:07.964Z,101151.77
2023-02-26T12:59:10.022Z,101146.05
2023-02-26T13:01:37.725Z,101156.02
2023-02-26T13:04:14.595Z,101142.29
2023-02-26T13:06:48.286Z,101157.95
2023-02-26T13:09:45.188Z,101156.71
2023-02-26T13:12:24.962Z,101172.93
2023-02-26T13:15:01.882Z,101189.15
2023-02-26T13:17:49.970Z,101196.50
2023-02-26T13:20:27.207Z,101198.30
2023-02-26T13:23:02.983Z,101209.26
2023-02-26T13:25:50.040Z,101199.67
2023-02-26T13:28:42.373Z,101207.75
2023-02-26T13:31:27.559Z,101198.53
2023-02-26T13:33:58.078Z,101182.80
2023-02-26T13:36:28.835Z,101199.64
2023-02-26T13:39:22.772Z,101190.78
2023-02-26T13:42:05.508Z,101195.55
2023-02-26T13:45:09.780Z,101183.49
2023-02-26T13:47:59.690Z,101186.70
2023-02-26T13:50:45.514Z,101193.95
2023-02-26T13:53:25.597Z,101182.25
2023-02-26T13:55:55.014Z,101183.06
2023-02-26T13:58:25.916Z,101176.95
2023-02-26T14:01:27.890Z,101178.16
2023-02-26T14:04:26.150Z,101179.37
2023-02-26T14:06:55.561Z,101181.43
2023-02-26T14:09:23.308Z,101176.98
2023-02-26T14:11:58.638Z,101183.81
2023-02-26T14:14:36.638Z,101177.77
2023-02-26T14:17:04.247Z,101182.54
2023-02-26T14:19:44.860Z,101174.07
2023-02-26T14:22:35.978Z,101172.83
2023-02-26T14:25:20.186Z,101163.05
2023-02-26T14:27:49.628Z,101156.61
2023-02-26T14:30:28.355Z,101169.43
2023-02-26T14:33:11.317Z,101169.04
2023-02-26T14:35:46.223Z,101166.16
2023-02-26T14:38:22.054Z,101179.01
2023-02-26T14:41:26.172Z,101171.36
2023-02-26T14:44:08.830Z,101166.95
2023-02-26T14:46:37.266Z,101174.98
2023-02-26T14:49:06.765Z,101172.57
2023-02-26T14:52:06.108Z,101172.57
2023-02-26T14:54:58.126Z,101180.64
2023-02-26T14:57:46.845Z,101182.25
2023-02-26T15:00:38.585Z,101176.98
2023-02-26T15:03:18.329Z,101174.98
2023-02-26T15:05:52.801Z,101179.01
2023-02-26T15:08:36.570Z,101184.66
2023-02-26T15:11:36.144Z,101193.13
2023-02-26T15:14:44.729Z,101176.27
2023-02-26T15:17:34.954Z,101204.91
2023-02-26T15:20:11.202Z,101202.09
2023-02-26T15:22:41.694Z,101210.95
2023-02-26T15:25:33.004Z,101210.59
2023-02-26T15:28:02.293Z,101225.90
2023-02-26T15:30:33.177Z,101224.69
2023-02-26T15:33:04.802Z,101233.13
2023-02-26T15:35:36.033Z,101230.67
2023-02-26T15:38:05.340Z,101244.38
2023-02-26T15:40:36.378Z,101242.35
2023-02-26T15:43:06.267Z,101264.48
2023-02-26T15:45:38.399Z,101261.71
2023-02-26T15:48:10.456Z,101264.59
2023-02-26T15:50:43.053Z,101284.73
2023-02-26T15:53:18.889Z,101273.52
2023-02-26T15:55:58.104Z,101283.59
2023-02-26T15:58:54.613Z,101272.73
2023-02-26T16:01:24.798Z,101293.66
2023-02-26T16:03:57.335Z,101287.64
2023-02-26T16:06:29.516Z,101290.48
2023-02-26T16:08:57.416Z,101264.75
2023-02-26T16:11:27.482Z,101284.89
2023-02-26T16:13:55.369Z,101274.04
2023-02-26T16:16:30.421Z,101278.05
2023-02-26T16:18:58.946Z,101270.83
2023-02-26T16:21:29.882Z,101296.17
2023-02-26T16:23:59.623Z,101287.34
2023-02-26T16:26:36.243Z,101287.34
2023-02-26T16:29:08.232Z,101290.16
2023-02-26T16:31:38.297Z,101294.18
2023-02-26T16:34:24.160Z,101308.27
2023-02-26T16:36:53.102Z,101317.10
2023-02-26T16:39:33.005Z,101315.50
2023-02-26T16:42:22.106Z,101311.48
2023-02-26T16:45:02.785Z,101316.32
2023-02-26T16:47:32.234Z,101301.83
2023-02-26T16:49:59.970Z,101296.60
2023-02-26T16:52:28.155Z,101300.23
2023-02-26T16:55:03.848Z,101309.09
2023-02-26T16:57:43.414Z,101307.88
2023-02-26T17:00:28.821Z,101310.70
2023-02-26T17:03:00.141Z,101317.92
2023-02-26T17:05:32.541Z,101327.96
2023-02-26T17:08:10.788Z,101321.94
2023-02-26T17:10:55.256Z,101328.77
2023-02-26T17:13:30.964Z,101331.98
2023-02-26T17:16:08.628Z,101327.56
2023-02-26T17:18:36.666Z,101327.56
2023-02-26T17:21:06.171Z,101344.47
2023-02-26T17:23:38.505Z,101349.28
2023-02-26T17:26:07.462Z,101344.05
2023-02-26T17:28:41.604Z,101353.30
2023-02-26T17:31:09.761Z,101350.49
2023-02-26T17:33:39.238Z,101342.02
2023-02-26T17:36:08.502Z,101347.68
2023-02-26T17:38:36.355Z,101344.41
2023-02-26T17:41:04.133Z,101361.31
2023-02-26T17:43:31.970Z,101355.30
2023-02-26T17:45:59.888Z,101356.90
2023-02-26T17:48:27.901Z,101360.10
2023-02-26T17:50:57.506Z,101348.82
2023-02-26T17:53:34.488Z,101344.80
2023-02-26T17:56:02.397Z,101352.88
2023-02-26T17:58:34.803Z,101345.65
2023-02-26T18:01:05.134Z,101353.30
2023-02-26T18:03:33.039Z,101346.07
2023-02-26T18:06:00.942Z,101355.30
2023-02-26T18:08:31.636Z,101352.48
2023-02-26T18:11:00.615Z,101361.73
2023-02-26T18:13:29.293Z,101373.02
2023-02-26T18:15:59.192Z,101365.76
2023-02-26T18:18:27.714Z,101367.79
2023-02-26T18:20:56.479Z,101379.46
2023-02-26T18:23:24.559Z,101385.09
2023-02-26T18:25:55.169Z,101383.48
2023-02-26T18:28:26.144Z,101389.11
2023-02-26T18:30:55.322Z,101396.34
2023-02-26T18:33:24.393Z,101401.17
2023-02-26T18:35:57.946Z,101397.15
2023-02-26T18:38:28.152Z,101389.11
2023-02-26T18:40:56.121Z,101393.52
2023-02-26T18:43:23.927Z,101381.85
2023-02-26T18:45:53.493Z,101388.68
2023-02-26T18:48:22.523Z,101393.52
2023-02-26T18:50:50.292Z,101390.28
2023-02-26T18:53:24.239Z,101401.14
2023-02-26T18:55:54.085Z,101395.52
2023-02-26T18:58:22.947Z,101396.30
2023-02-26T19:00:50.807Z,101401.53
2023-02-26T19:03:18.690Z,101413.17
2023-02-26T19:05:46.699Z,101395.91
2023-02-26T19:08:14.534Z,101401.53
2023-02-26T19:10:42.211Z,101408.76
2023-02-26T19:13:09.950Z,101408.76
2023-02-26T19:15:37.629Z,101398.72
2023-02-26T19:18:05.321Z,101407.98
2023-02-26T19:20:33.061Z,101430.48
2023-02-26T19:23:02.076Z,101425.63
2023-02-26T19:25:31.983Z,101429.66
2023-02-26T19:27:59.901Z,101440.91
2023-02-26T19:30:27.741Z,101454.15
2023-02-26T19:32:56.158Z,101455.36
2023-02-26T19:35:23.916Z,101450.52
2023-02-26T19:37:51.678Z,101440.09
2023-02-26T19:40:20.812Z,101413.17
2023-02-26T19:42:49.184Z,101444.11
2023-02-26T19:45:17.356Z,101435.67
2023-02-26T19:47:45.206Z,101438.48
2023-02-26T19:50:15.148Z,101446.10
2023-02-26T19:52:42.937Z,101443.72
2023-02-26T19:55:11.310Z,101436.06
2023-02-26T19:57:38.953Z,101445.71
2023-02-26T20:00:08.132Z,101433.65
2023-02-26T20:02:35.947Z,101455.36
2023-02-26T20:05:06.079Z,101444.89
2023-02-26T20:07:33.857Z,101444.89
2023-02-26T20:10:05.028Z,101451.34
2023-02-26T20:12:32.841Z,101447.31
2023-02-26T20:15:00.595Z,101454.57
2023-02-26T20:17:28.234Z,101461.02
2023-02-26T20:19:56.092Z,101462.59
2023-02-26T20:22:25.683Z,101472.62
2023-02-26T20:24:53.823Z,101473.44
2023-02-26T20:27:21.740Z,101462.95
2023-02-26T20:29:50.763Z,101479.03
2023-02-26T20:32:18.970Z,101471.38
2023-02-26T20:34:46.899Z,101472.16
2023-02-26T20:37:14.732Z,101462.95
2023-02-26T20:39:42.476Z,101470.99
2023-02-26T20:42:10.374Z,101462.55
2023-02-26T20:44:38.047Z,101478.61
2023-02-26T20:47:06.218Z,101457.71
2023-02-26T20:49:33.935Z,101455.29
2023-02-26T20:52:01.873Z,101460.52
2023-02-26T20:54:29.660Z,101467.36
2023-02-26T20:56:57.592Z,101468.14
2023-02-26T20:59:25.375Z,101469.35
2023-02-26T21:01:54.531Z,101467.36
2023-02-26T21:04:22.372Z,101477.01
2023-02-26T21:06:50.568Z,101484.23
2023-02-26T21:09:18.260Z,101479.39
2023-02-26T21:11:45.959Z,101477.01
2023-02-26T21:14:13.714Z,101476.58
2023-02-26T21:16:42.442Z,101463.34
2023-02-26T21:19:10.335Z,101457.74
2023-02-26T21:21:38.053Z,101452.12
2023-02-26T21:24:06.135Z,101456.93
2023-02-26T21:26:35.309Z,101459.74
2023-02-26T21:29:03.921Z,101457.35
2023-02-26T21:31:32.216Z,101444.50
2023-02-26T21:34:08.260Z,101441.23
2023-02-26T21:36:45.015Z,101441.23
2023-02-26T21:39:12.781Z,101454.12
2023-02-26T21:41:40.603Z,101456.11
2023-02-26T21:44:08.568Z,101457.68
2023-02-26T21:46:36.528Z,101470.56
2023-02-26T21:49:04.338Z,101477.01
2023-02-26T21:51:32.103Z,101473.34
2023-02-26T21:54:00.026Z,101479.42
2023-02-26T21:56:27.802Z,101466.54
2023-02-26T21:58:55.800Z,101467.36
2023-02-26T22:01:23.567Z,101465.76
2023-02-26T22:03:51.362Z,101459.31
2023-02-26T22:06:19.155Z,101466.15
2023-02-26T22:08:46.893Z,101449.27
2023-02-26T22:11:14.730Z,101459.34
2023-02-26T22:13:42.614Z,101456.14
2023-02-26T22:16:10.727Z,101463.77
2023-02-26T22:18:38.742Z,101457.74
2023-02-26T22:21:06.665Z,101453.33
2023-02-26T22:23:34.362Z,101460.95
2023-02-26T22:26:02.651Z,101457.74
2023-02-26T22:28:30.762Z,101457.74
2023-02-26T22:30:58.569Z,101464.97
2023-02-26T22:33:27.264Z,101460.95
2023-02-26T22:35:59.232Z,101448.06
2023-02-26T22:38:27.287Z,101456.53
2023-02-26T22:40:55.414Z,101452.12
2023-02-26T22:43:23.757Z,101463.73
2023-02-26T22:45:51.632Z,101459.70
2023-02-26T22:48:19.441Z,101460.52
2023-02-26T22:50:47.156Z,101447.67
2023-02-26T22:53:14.800Z,101451.30
2023-02-26T22:55:42.905Z,101458.14
2023-02-26T22:58:10.849Z,101455.75
2023-02-26T23:00:38.685Z,101457.35
2023-02-26T23:03:06.473Z,101454.90
2023-02-26T23:05:34.331Z,101441.66
2023-02-26T23:08:02.178Z,101445.68
2023-02-26T23:10:30.029Z,101456.11
2023-02-26T23:13:01.251Z,101468.93
2023-02-26T23:15:29.256Z,101465.33
2023-02-26T23:17:57.095Z,101464.52
2023-02-26T23:20:24.781Z,101460.10
2023-02-26T23:22:52.481Z,101464.13
2023-02-26T23:25:20.299Z,101471.74
2023-02-26T23:27:48.209Z,101464.52
2023-02-26T23:30:15.946Z,101475.37
2023-02-26T23:32:43.881Z,101475.37
2023-02-26T23:35:11.780Z,101465.73
2023-02-26T23:37:39.661Z,101473.77
2023-02-26T23:40:08.861Z,101469.74
2023-02-26T23:42:36.707Z,101470.14
2023-02-26T23:45:04.705Z,101473.77
2023-02-26T23:47:32.417Z,101480.18
2023-02-26T23:50:00.188Z,101471.31
2023-02-26T23:52:27.912Z,101470.14
2023-02-26T23:54:55.848Z,101472.13
2023-02-26T23:57:23.885Z,101463.73
2023-02-26T23:59:51.801Z,101460.91
